Latest Coastal Weather Observations for Moorabbin Airport

IDV60701

Issued at 11:11 am EST Friday 24 May 2024 (issued every 10 minutes, with the page automatically refreshed every 10 minutes)

About coastal observations | Map of coastal stations | Coastal observations for VIC | Marine services | Other Formats
Station Details ID: 086077 Name: MOORABBIN AIRPORT Lat: -37.98 Lon: 145.10 Height: 12.1 m
Data from the previous 72 hours. | See also: Recent months at Moorabbin Airport
Date/Time
EST
Wind Sea
Height
m
Swell Vis
km
Cloud Weather Temp
°C
Press
MSL
hPa
Rain since
9am
mm
Dir  Spd
kts
Gust
kts
Height
m
Period
s
Dir
24/11:00am NNW 6 7 - - - - 10 Cloudy - 11.8 1029.1 0.0
24/10:30am N 6 8 - - - - 10 Cloudy - 11.4 1029.2 0.0
24/10:00am N 5 7 - - - - 10 Cloudy - 10.9 1029.1 0.0
24/09:30am N 5 6 - - - - 10 Cloudy - 10.3 1029.0 0.0
24/09:00am N 5 6 - - - - 10 Cloudy - 9.5 1029.0 0.0
24/08:30am N 5 6 - - - - 10 Cloudy - 9.2 1029.1 0.0
24/08:00am N 5 6 - - - - 10 Partly cloudy - 8.9 1028.7 0.0
24/07:30am N 6 7 - - - - 10 Cloudy - 8.4 1028.3 0.0
24/07:00am N 6 8 - - - - 10 Partly cloudy - 8.0 1028.2 0.0
24/06:30am N 5 6 - - - - 10 Partly cloudy - 7.5 1028.2 0.0
24/06:00am N 5 6 - - - - 10 Cloudy - 7.5 1028.2 0.0
24/05:30am CALM 0 0 - - - - 10 Partly cloudy - 6.9 1027.9 0.0
24/05:00am NNW 3 5 - - - - 10 Partly cloudy - 7.9 1027.6 0.0
24/04:30am N 7 8 - - - - 10 Cloudy - 8.2 1027.3 0.0
24/04:00am N 4 6 - - - - 10 Cloudy - 7.8 1027.5 0.0
24/03:30am N 5 5 - - - - 10 Cloudy - 6.7 1027.8 0.0
24/03:00am N 3 3 - - - - 10 Partly cloudy - 6.0 1028.3 0.0
24/02:30am NNW 3 3 - - - - 10 - - 5.9 1028.3 0.0
24/02:00am N 5 5 - - - - 10 - - 6.3 1028.2 0.0
24/01:30am N 4 5 - - - - 10 - - 6.9 1027.9 0.0
24/01:00am N 4 5 - - - - 10 - - 6.5 1028.2 0.0
24/12:30am N 1 5 - - - - 10 - - 6.4 1028.5 0.0
24/12:00am CALM 0 0 - - - - 10 - - 5.6 1028.8 0.0
 
Date/Time
EST
Wind Sea
Height
m
Swell Vis
km
Cloud Weather Temp
°C
Press
MSL
hPa
Rain since
9am
mm
Dir  Spd
kts
Gust
kts
Height
m
Period
s
Dir
23/11:30pm CALM 0 0 - - - - 10 - - 6.8 1028.5 0.0
23/11:00pm CALM 0 0 - - - - 10 - - 6.3 1028.3 0.0
23/10:30pm CALM 0 0 - - - - 10 - - 7.2 1028.0 0.0
23/10:00pm CALM 0 0 - - - - 10 - - 7.0 1027.9 0.0
23/09:30pm N 3 4 - - - - 10 - - 7.7 1028.0 0.0
23/09:00pm N 3 4 - - - - 10 - - 8.1 1028.0 0.0
23/08:30pm NNW 1 3 - - - - 10 - - 7.5 1028.2 0.0
23/08:00pm CALM 0 0 - - - - 10 - - 8.3 1028.0 0.0
23/07:30pm CALM 0 0 - - - - 10 - - 8.6 1027.9 0.0
23/07:00pm CALM 0 0 - - - - 10 - - 9.6 1027.8 0.0
23/06:30pm CALM 0 0 - - - - 10 - - 10.2 1027.6 0.0
23/06:00pm CALM 0 0 - - - - 10 - - 10.7 1027.6 0.0
23/05:30pm SSE 1 3 - - - - 10 - - 11.8 1027.5 0.0
23/05:00pm S 3 4 - - - - 10 - - 13.0 1027.4 0.0
23/04:30pm SSW 4 6 - - - - 10 - - 13.7 1027.3 0.0
23/04:00pm SSW 5 6 - - - - 10 - - 14.2 1027.2 0.0
23/03:30pm SW 6 8 - - - - 10 - - 14.4 1027.2 0.0
23/03:00pm SW 7 9 - - - - 10 - - 14.6 1027.3 0.0
23/02:30pm SW 7 11 - - - - 10 - - 15.2 1027.4 0.0
23/02:00pm WSW 7 11 - - - - 10 - - 14.3 1027.5 0.0
23/01:30pm WSW 6 8 - - - - 10 - - 14.3 1027.8 0.0
23/01:00pm SW 7 11 - - - - 10 Partly cloudy - 14.0 1028.0 0.0
23/12:30pm WSW 6 8 - - - - 10 Partly cloudy - 14.0 1028.4 0.0
23/12:05pm W 5 8 - - - - 10 Partly cloudy - 13.8 1028.7 0.0
23/12:00pm W 5 8 - - - - 10 Cloudy - 13.7 1028.8 0.0
23/11:30am W 6 7 - - - - 10 Partly cloudy - 13.7 1029.2 0.0
23/11:00am NW 7 9 - - - - 10 Cloudy - 13.0 1029.4 0.0
23/10:30am W 6 8 - - - - 10 Cloudy - 12.6 1029.4 0.0
23/10:00am WNW 6 8 - - - - 10 Cloudy - 12.2 1029.2 0.0
23/09:30am NW 6 8 - - - - 10 Cloudy - 12.1 1029.0 0.0
23/09:00am NW 5 6 - - - - 10 Cloudy - 11.9 1029.2 1.8
23/08:30am N 4 5 - - - - 10 Cloudy - 11.4 1029.0 1.8
23/08:00am N 5 6 - - - - 10 Cloudy - 11.0 1028.8 1.8
23/07:30am NNW 5 6 - - - - 10 Cloudy - 10.7 1028.3 1.8
23/07:00am N 4 5 - - - - 9 Partly cloudy - 10.7 1027.8 1.8
23/06:56am N 4 5 - - - - 8 Partly cloudy - 10.7 1027.8 1.8
23/06:48am N 5 6 - - - - 8 Partly cloudy - 10.6 1027.8 1.8
23/06:30am N 4 6 - - - - 9 Partly cloudy - 10.8 1027.7 1.8
23/06:05am N 5 6 - - - - 8 Partly cloudy - 10.8 1027.7 1.8
23/06:00am N 5 7 - - - - 8 Cloudy Recent precip. 10.7 1027.6 1.8
23/05:30am N 5 6 - - - - 9 Partly cloudy - 10.7 1027.4 1.8
23/05:00am N 4 5 - - - - 10 Partly cloudy - 10.7 1027.5 1.6
23/04:30am N 5 6 - - - - 10 Partly cloudy - 10.7 1027.2 1.6
23/04:00am N 4 5 - - - - 7 Partly cloudy - 10.9 1027.2 1.6
23/03:30am N 3 4 - - - - 10 Partly cloudy - 10.9 1027.3 1.6
23/03:00am N 3 4 - - - - 10 Mostly cloudy - 11.1 1027.4 1.6
23/02:30am N 5 6 - - - - 10 Partly cloudy - 11.2 1027.2 1.6
23/02:00am NNE 5 6 - - - - 10 Partly cloudy - 11.3 1027.3 1.6
23/01:30am NNE 4 5 - - - - 10 Partly cloudy - 11.6 1027.2 1.6
23/01:28am NNE 4 5 - - - - 10 Partly cloudy - 11.6 1027.2 1.6
23/01:09am NNE 4 5 - - - - 10 Partly cloudy - 11.6 1027.2 1.6
23/01:00am NNE 3 5 - - - - 10 Partly cloudy - 11.9 1027.2 1.6
23/12:30am CALM 0 4 - - - - 10 Partly cloudy - 11.7 1027.1 1.6
23/12:25am CALM 0 0 - - - - 10 Partly cloudy - 11.5 1027.1 1.6
23/12:00am CALM 0 0 - - - - 4 Cloudy - 11.7 1027.2 1.6
 
Date/Time
EST
Wind Sea
Height
m
Swell Vis
km
Cloud Weather Temp
°C
Press
MSL
hPa
Rain since
9am
mm
Dir  Spd
kts
Gust
kts
Height
m
Period
s
Dir
22/11:50pm CALM 0 0 - - - - 5 Partly cloudy - 11.6 1027.2 1.6
22/11:30pm CALM 0 0 - - - - 10 Cloudy - 11.8 1027.0 1.6
22/11:00pm CALM 0 0 - - - - 10 Partly cloudy - 11.9 1027.1 1.6
22/10:30pm CALM 0 0 - - - - 10 Partly cloudy - 12.1 1027.2 1.6
22/10:07pm CALM 0 0 - - - - 10 Partly cloudy - 12.2 1027.4 1.6
22/10:00pm CALM 0 0 - - - - 7 Partly cloudy - 12.2 1027.4 1.6
22/09:39pm SW 2 4 - - - - 5 Partly cloudy - 12.3 1027.4 1.4
22/09:30pm SW 3 4 - - - - 10 Partly cloudy - 12.3 1027.4 1.4
22/09:00pm SW 4 6 - - - - 3 Cloudy Rain 12.5 1027.6 1.2
22/08:52pm WSW 2 5 - - - - 3 Partly cloudy - 12.7 1027.6 0.8
22/08:31pm CALM 0 0 - - - - 6 Partly cloudy - 12.8 1027.6 0.2
22/08:30pm CALM 0 0 - - - - 5 Partly cloudy - 12.8 1027.6 0.2
22/08:21pm WNW 1 3 - - - - 5 Partly cloudy - 12.8 1027.6 0.2
22/08:00pm W 5 7 - - - - 10 Partly cloudy - 12.9 1027.6 0.0
22/07:30pm WSW 3 5 - - - - 10 Cloudy - 12.9 1027.4 0.0
22/07:00pm SW 4 6 - - - - 10 Partly cloudy - 13.0 1027.4 0.0
22/06:58pm SW 5 6 - - - - 10 Partly cloudy - 13.1 1027.4 0.0
22/06:45pm WNW 3 7 - - - - 10 Partly cloudy - 13.0 1027.3 0.0
22/06:30pm N 2 4 - - - - 10 Partly cloudy - 11.9 1027.3 0.0
22/06:00pm NNW 2 3 - - - - 10 Mostly cloudy - 11.8 1027.1 0.0
22/05:30pm WSW 3 4 - - - - 10 Partly cloudy - 12.7 1027.0 0.0
22/05:00pm SW 3 4 - - - - 10 - - 13.4 1026.7 0.0
22/04:30pm SW 4 5 - - - - 10 Partly cloudy - 14.2 1026.6 0.0
22/04:00pm SW 5 7 - - - - 10 Partly cloudy - 14.5 1026.6 0.0
22/03:30pm SW 7 9 - - - - 10 Partly cloudy - 14.6 1026.5 0.0
22/03:00pm SW 4 6 - - - - 10 Mostly clear - 15.0 1026.5 0.0
22/02:30pm SW 5 8 - - - - 10 - - 14.9 1026.7 0.0
22/02:00pm WSW 7 10 - - - - 10 - - 14.2 1026.8 0.0
22/01:30pm SW 8 10 - - - - 10 Partly cloudy - 14.2 1027.0 0.0
22/01:00pm W 6 8 - - - - 10 Partly cloudy - 14.8 1027.0 0.0
22/12:30pm WNW 5 7 - - - - 10 Partly cloudy - 14.7 1027.3 0.0
22/12:00pm N 5 9 - - - - 10 - - 14.6 1027.8 0.0
22/11:30am NNW 5 9 - - - - 10 Partly cloudy - 13.9 1028.4 0.0
22/11:00am NNW 5 7 - - - - 10 Partly cloudy - 13.4 1028.8 0.0
22/10:30am N 5 7 - - - - 10 - - 12.3 1028.8 0.0
22/10:00am N 5 7 - - - - 10 - - 11.5 1028.8 0.0
22/09:30am N 6 7 - - - - 10 - - 10.8 1029.0 0.0
22/09:00am N 7 8 - - - - 10 - - 9.5 1028.7 0.0
22/08:30am N 6 7 - - - - 10 - - 8.0 1028.7 0.0
22/08:00am N 7 8 - - - - 10 - - 6.9 1028.6 0.0
22/07:30am NNW 6 8 - - - - 10 - - 6.2 1028.7 0.0
22/07:00am N 4 6 - - - - 10 - - 5.7 1028.5 0.0
22/06:30am N 5 6 - - - - 10 - - 6.2 1028.3 0.0
22/06:00am N 4 5 - - - - 10 - - 6.9 1028.0 0.0
22/05:30am N 5 6 - - - - 10 Partly cloudy - 6.3 1028.0 0.0
22/05:00am N 4 4 - - - - 10 Partly cloudy - 6.3 1027.9 0.0
22/04:30am NNW 3 4 - - - - 10 Partly cloudy - 6.5 1027.7 0.0
22/04:00am N 5 5 - - - - 10 Partly cloudy - 6.4 1027.6 0.0
22/03:30am N 4 4 - - - - 10 - - 6.1 1027.7 0.0
22/03:00am N 4 5 - - - - 10 - - 6.7 1028.0 0.0
22/02:30am N 6 8 - - - - 10 - - 6.6 1028.2 0.0
22/02:00am N 6 7 - - - - 10 Partly cloudy - 7.5 1028.5 0.0
22/01:30am NNW 5 7 - - - - 10 Partly cloudy - 6.9 1028.7 0.0
22/01:00am NW 5 8 - - - - 10 Partly cloudy - 6.4 1028.9 0.0
22/12:30am N 4 4 - - - - 10 - - 6.1 1029.1 0.0
22/12:00am CALM 0 0 - - - - 10 - - 5.9 1029.2 0.0
 
Date/Time
EST
Wind Sea
Height
m
Swell Vis
km
Cloud Weather Temp
°C
Press
MSL
hPa
Rain since
9am
mm
Dir  Spd
kts
Gust
kts
Height
m
Period
s
Dir
21/11:30pm N 1 3 - - - - 10 - - 6.2 1029.4 0.0
21/11:00pm N 5 6 - - - - 10 - - 6.4 1029.4 0.0
21/10:30pm CALM 0 1 - - - - 10 - - 6.7 1029.6 0.0
21/10:00pm CALM 0 0 - - - - 10 Partly cloudy - 7.0 1029.8 0.0
21/09:30pm CALM 0 0 - - - - 10 Partly cloudy - 6.9 1029.7 0.0
21/09:00pm CALM 0 0 - - - - 10 - - 7.5 1029.6 0.0
21/08:30pm NNE 4 5 - - - - 10 - - 7.5 1029.6 0.0
21/08:00pm CALM 0 0 - - - - 10 - - 8.9 1029.7 0.0
21/07:30pm CALM 0 0 - - - - 10 - - 9.4 1029.6 0.0
21/07:00pm S 4 5 - - - - 10 - - 11.0 1029.6 0.0
21/06:30pm SSW 5 7 - - - - 10 Partly cloudy - 11.8 1029.5 0.0
21/06:00pm SSW 5 6 - - - - 10 Mostly cloudy - 11.9 1029.5 0.0
21/05:30pm SW 4 6 - - - - 10 - - 11.7 1029.2 0.0
21/05:00pm SSW 5 7 - - - - 10 - - 12.3 1029.1 0.0
21/04:30pm SSW 6 8 - - - - 10 Partly cloudy - 12.6 1029.1 0.0
21/04:00pm SSW 7 11 - - - - 10 Cloudy - 13.5 1029.2 0.0
21/03:30pm SSW 8 10 - - - - 10 Cloudy - 13.6 1029.2 0.0
21/03:00pm SW 6 9 - - - - 10 Cloudy - 13.7 1029.2 0.0
21/02:30pm SW 7 8 - - - - 10 Cloudy - 13.7 1029.2 0.0
21/02:00pm SW 7 10 - - - - 10 Cloudy - 13.9 1029.2 0.0
21/01:30pm SW 6 8 - - - - 10 Cloudy - 13.9 1029.4 0.0
21/01:00pm WSW 6 9 - - - - 10 Cloudy - 13.9 1029.7 0.0
21/12:30pm SW 6 9 - - - - 10 Cloudy - 13.6 1030.1 0.0
21/12:00pm SW 6 8 - - - - 10 Cloudy - 13.8 1030.4 0.0
21/11:30am SW 6 9 - - - - 10 Cloudy - 14.4 1030.7 0.0

Other formats

Comma delimited format used in spreadsheet applications
http://www.bom.gov.au/fwo/IDV60701/IDV60701.94870.axf

JavaScript Object Notation format (JSON) in row-major order
http://www.bom.gov.au/fwo/IDV60701/IDV60701.94870.json

Data quality

Most of these data are generated automatically and are frequently updated. Quality checks on data are not normally performed. It is possible for incorrect values to appear. Refer to information at About Latest Weather Observations and please check the disclaimer before using these data.